createdAt,value
2022-10-09T00:01:35.357Z,2.45
2022-10-09T00:04:23.017Z,2.75
2022-10-09T00:07:10.429Z,2.33
2022-10-09T00:09:57.655Z,2.25
2022-10-09T00:12:44.934Z,2.10
2022-10-09T00:15:32.408Z,2.55
2022-10-09T00:18:20.141Z,3.33
2022-10-09T00:21:09.399Z,2.75
2022-10-09T00:23:58.964Z,3.20
2022-10-09T00:26:48.638Z,2.47
2022-10-09T00:29:35.988Z,2.60
2022-10-09T00:32:23.527Z,2.90
2022-10-09T00:35:11.028Z,2.27
2022-10-09T00:37:58.425Z,2.90
2022-10-09T00:40:45.598Z,2.72
2022-10-09T00:43:51.025Z,2.47
2022-10-09T00:46:41.526Z,2.50
2022-10-09T00:49:34.908Z,2.90
2022-10-09T00:52:24.628Z,2.55
2022-10-09T00:55:14.875Z,2.58
2022-10-09T00:58:03.165Z,2.60
2022-10-09T01:00:51.378Z,2.90
2022-10-09T01:03:40.234Z,2.58
2022-10-09T01:06:33.449Z,2.12
2022-10-09T01:09:26.453Z,2.22
2022-10-09T01:12:22.240Z,2.42
2022-10-09T01:15:18.224Z,2.62
2022-10-09T01:18:11.664Z,2.25
2022-10-09T01:21:23.141Z,2.30
2022-10-09T01:24:22.640Z,2.40
2022-10-09T01:27:19.942Z,2.30
2022-10-09T01:30:10.361Z,2.60
2022-10-09T01:32:57.821Z,2.30
2022-10-09T01:35:47.455Z,2.35
2022-10-09T01:38:35.737Z,2.35
2022-10-09T01:41:23.322Z,3.08
2022-10-09T01:44:28.384Z,2.67
2022-10-09T01:47:18.561Z,2.55
2022-10-09T01:50:09.487Z,2.60
2022-10-09T01:53:09.201Z,2.80
2022-10-09T01:55:59.744Z,2.90
2022-10-09T01:58:56.156Z,2.40
2022-10-09T02:01:45.220Z,2.55
2022-10-09T02:04:33.095Z,2.42
2022-10-09T02:07:21.594Z,2.40
2022-10-09T02:10:10.074Z,2.10
2022-10-09T02:13:01.353Z,2.55
2022-10-09T02:15:54.702Z,2.27
2022-10-09T02:18:46.573Z,1.90
2022-10-09T02:21:36.970Z,2.30
2022-10-09T02:24:25.180Z,2.10
2022-10-09T02:27:14.192Z,2.20
2022-10-09T02:30:02.717Z,1.90
2022-10-09T02:32:54.918Z,2.45
2022-10-09T02:35:42.512Z,1.72
2022-10-09T02:38:29.665Z,2.10
2022-10-09T02:41:36.432Z,2.30
2022-10-09T02:44:24.011Z,1.98
2022-10-09T02:47:11.067Z,2.27
2022-10-09T02:49:58.719Z,2.12
2022-10-09T02:52:46.479Z,2.65
2022-10-09T02:55:33.879Z,2.47
2022-10-09T02:58:21.448Z,2.80
2022-10-09T03:01:08.669Z,2.83
2022-10-09T03:03:56.323Z,2.10
2022-10-09T03:06:43.599Z,2.00
2022-10-09T03:09:33.666Z,2.05
2022-10-09T03:12:21.576Z,2.40
2022-10-09T03:15:10.034Z,2.30
2022-10-09T03:17:57.398Z,2.72
2022-10-09T03:20:44.773Z,2.45
2022-10-09T03:23:31.928Z,2.42
2022-10-09T03:26:22.156Z,2.40
2022-10-09T03:29:09.654Z,2.60
2022-10-09T03:31:57.180Z,2.55
2022-10-09T03:34:44.537Z,2.90
2022-10-09T03:37:31.763Z,2.85
2022-10-09T03:40:19.102Z,2.80
2022-10-09T03:43:06.624Z,2.50
2022-10-09T03:45:54.082Z,2.55
2022-10-09T03:48:41.494Z,2.77
2022-10-09T03:51:29.126Z,2.50
2022-10-09T03:54:16.353Z,2.98
2022-10-09T03:57:03.873Z,2.20
2022-10-09T03:59:51.332Z,2.90
2022-10-09T04:02:39.051Z,2.37
2022-10-09T04:05:26.821Z,2.80
2022-10-09T04:08:14.635Z,2.72
2022-10-09T04:11:03.150Z,2.35
2022-10-09T04:13:50.927Z,2.20
2022-10-09T04:16:38.360Z,2.77
2022-10-09T04:19:25.606Z,2.40
2022-10-09T04:22:12.913Z,2.98
2022-10-09T04:25:00.332Z,2.47
2022-10-09T04:27:47.794Z,2.62
2022-10-09T04:30:34.981Z,2.72
2022-10-09T04:33:22.731Z,3.47
2022-10-09T04:36:10.364Z,2.35
2022-10-09T04:38:57.905Z,2.40
2022-10-09T04:41:46.211Z,2.62
2022-10-09T04:44:33.669Z,2.55
2022-10-09T04:47:20.828Z,2.10
2022-10-09T04:50:08.897Z,2.58
2022-10-09T04:52:56.250Z,2.08
2022-10-09T04:55:44.596Z,2.25
2022-10-09T04:58:32.883Z,2.77
2022-10-09T05:01:25.655Z,2.58
2022-10-09T05:04:12.650Z,2.40
2022-10-09T05:07:00.245Z,2.40
2022-10-09T05:09:47.626Z,2.27
2022-10-09T05:12:34.757Z,2.83
2022-10-09T05:15:21.961Z,3.52
2022-10-09T05:18:09.537Z,2.67
2022-10-09T05:20:57.039Z,2.55
2022-10-09T05:23:44.676Z,2.92
2022-10-09T05:26:31.895Z,2.40
2022-10-09T05:29:19.373Z,2.50
2022-10-09T05:32:06.933Z,2.40
2022-10-09T05:34:54.432Z,2.50
2022-10-09T05:37:45.465Z,2.80
2022-10-09T05:40:32.961Z,2.62
2022-10-09T05:43:20.421Z,2.90
2022-10-09T05:46:10.214Z,2.67
2022-10-09T05:49:00.178Z,2.77
2022-10-09T05:51:48.645Z,2.67
2022-10-09T05:54:36.137Z,3.25
2022-10-09T05:57:23.553Z,2.87
2022-10-09T06:00:12.109Z,2.90
2022-10-09T06:02:59.313Z,3.05
2022-10-09T06:05:46.584Z,3.37
2022-10-09T06:08:36.539Z,2.75
2022-10-09T06:11:33.141Z,3.27
2022-10-09T06:14:22.057Z,2.92
2022-10-09T06:17:09.795Z,3.47
2022-10-09T06:19:57.322Z,2.60
2022-10-09T06:22:44.696Z,2.80
2022-10-09T06:25:32.260Z,2.62
2022-10-09T06:28:19.586Z,2.35
2022-10-09T06:31:09.769Z,2.60
2022-10-09T06:33:58.927Z,2.50
2022-10-09T06:36:46.208Z,2.37
2022-10-09T06:39:33.628Z,2.62
2022-10-09T06:42:21.593Z,2.92
2022-10-09T06:45:09.954Z,3.42
2022-10-09T06:47:57.478Z,2.95
2022-10-09T06:50:44.702Z,3.22
2022-10-09T06:53:33.475Z,3.45
2022-10-09T06:56:23.378Z,3.12
2022-10-09T06:59:12.285Z,3.45
2022-10-09T07:01:59.562Z,3.22
2022-10-09T07:04:48.428Z,3.17
2022-10-09T07:07:37.524Z,2.95
2022-10-09T07:10:26.104Z,2.83
2022-10-09T07:13:13.389Z,2.58
2022-10-09T07:16:04.666Z,2.12
2022-10-09T07:18:49.845Z,2.87
2022-10-09T07:21:38.363Z,2.70
2022-10-09T07:24:25.754Z,2.50
2022-10-09T07:27:12.991Z,2.33
2022-10-09T07:30:01.129Z,2.15
2022-10-09T07:32:48.727Z,2.55
2022-10-09T07:35:36.168Z,2.27
2022-10-09T07:38:27.725Z,1.95
2022-10-09T07:41:15.021Z,2.30
2022-10-09T07:44:02.756Z,2.00
2022-10-09T07:46:51.787Z,2.17
2022-10-09T07:49:39.243Z,2.37
2022-10-09T07:52:27.040Z,2.22
2022-10-09T07:55:14.625Z,2.05
2022-10-09T07:58:01.777Z,2.00
2022-10-09T08:00:49.003Z,1.70
2022-10-09T08:03:37.244Z,1.45
2022-10-09T08:06:25.799Z,2.00
2022-10-09T08:09:13.019Z,2.02
2022-10-09T08:12:00.348Z,1.67
2022-10-09T08:14:49.141Z,1.87
2022-10-09T08:17:36.929Z,1.40
2022-10-09T08:20:24.331Z,1.87
2022-10-09T08:23:11.591Z,1.70
2022-10-09T08:25:59.484Z,2.02
2022-10-09T08:28:52.157Z,2.20
2022-10-09T08:31:40.280Z,2.30
2022-10-09T08:34:27.679Z,1.80
2022-10-09T08:37:14.927Z,2.20
2022-10-09T08:40:02.534Z,2.17
2022-10-09T08:42:55.808Z,1.98
2022-10-09T08:45:47.653Z,2.25
2022-10-09T08:48:38.145Z,2.22
2022-10-09T08:51:28.661Z,2.30
2022-10-09T08:54:36.931Z,2.02
2022-10-09T08:57:25.914Z,2.20
2022-10-09T09:00:22.819Z,2.30
2022-10-09T09:03:22.535Z,2.10
2022-10-09T09:06:43.295Z,1.70
2022-10-09T09:09:40.060Z,2.42
2022-10-09T09:12:39.072Z,2.00
2022-10-09T09:15:38.947Z,2.20
2022-10-09T09:18:48.539Z,2.60
2022-10-09T09:21:38.900Z,2.60
2022-10-09T09:24:38.229Z,2.22
2022-10-09T09:27:31.246Z,2.05
2022-10-09T09:30:33.673Z,2.12
2022-10-09T09:33:24.037Z,2.52
2022-10-09T09:36:23.315Z,2.40
2022-10-09T09:42:09.604Z,2.55
2022-10-09T09:45:05.115Z,2.45
2022-10-09T09:48:06.369Z,2.87
2022-10-09T09:51:16.029Z,2.25
2022-10-09T09:54:01.682Z,2.30
2022-10-09T09:59:44.171Z,2.12
2022-10-09T10:02:31.716Z,1.90
2022-10-09T10:05:25.800Z,2.58
2022-10-09T10:08:36.164Z,2.15
2022-10-09T10:11:22.855Z,1.85
2022-10-09T10:14:12.416Z,1.70
2022-10-09T10:17:01.999Z,2.33
2022-10-09T10:19:51.547Z,2.27
2022-10-09T10:22:38.851Z,2.42
2022-10-09T10:25:32.698Z,2.35
2022-10-09T10:28:23.482Z,2.30
2022-10-09T10:31:13.903Z,2.30
2022-10-09T10:34:03.240Z,2.55
2022-10-09T10:36:53.503Z,1.72
2022-10-09T10:39:56.097Z,1.95
2022-10-09T10:43:03.714Z,1.95
2022-10-09T10:45:54.223Z,1.57
2022-10-09T10:48:47.138Z,2.12
2022-10-09T10:51:53.681Z,1.90
2022-10-09T10:54:55.858Z,1.67
2022-10-09T10:57:58.309Z,1.87
2022-10-09T11:00:48.787Z,1.75
2022-10-09T11:03:45.592Z,2.00
2022-10-09T11:06:51.129Z,1.82
2022-10-09T11:10:19.006Z,1.72
2022-10-09T11:13:15.575Z,1.55
2022-10-09T11:16:09.154Z,2.00
2022-10-09T11:19:02.320Z,1.67
2022-10-09T11:21:55.684Z,1.45
2022-10-09T11:24:51.741Z,1.70
2022-10-09T11:28:15.448Z,1.70
2022-10-09T11:31:14.770Z,1.47
2022-10-09T11:34:08.157Z,1.65
2022-10-09T11:36:57.255Z,1.72
2022-10-09T11:39:45.769Z,1.37
2022-10-09T11:42:35.041Z,1.30
2022-10-09T11:45:43.015Z,1.40
2022-10-09T11:48:45.667Z,1.60
2022-10-09T11:52:06.561Z,1.17
2022-10-09T11:54:53.939Z,1.50
2022-10-09T11:57:41.549Z,1.72
2022-10-09T12:00:36.682Z,1.32
2022-10-09T12:03:35.989Z,1.12
2022-10-09T12:06:23.136Z,1.10
2022-10-09T12:09:12.683Z,1.30
2022-10-09T12:12:07.899Z,1.50
2022-10-09T12:14:55.475Z,1.25
2022-10-09T12:17:50.036Z,1.25
2022-10-09T12:20:39.522Z,1.40
2022-10-09T12:23:30.209Z,1.30
2022-10-09T12:26:20.915Z,1.27
2022-10-09T12:29:11.562Z,1.20
2022-10-09T12:32:02.233Z,1.60
2022-10-09T12:34:51.929Z,1.10
2022-10-09T12:37:39.104Z,1.40
2022-10-09T12:40:32.850Z,1.20
2022-10-09T12:43:23.511Z,1.17
2022-10-09T12:46:11.044Z,1.12
2022-10-09T12:49:00.341Z,1.30
2022-10-09T12:51:56.066Z,1.47
2022-10-09T12:54:45.138Z,3.45
2022-10-09T12:57:33.340Z,2.60
2022-10-09T13:00:21.145Z,1.50
2022-10-09T13:03:26.593Z,1.75
2022-10-09T13:06:23.562Z,3.20
2022-10-09T13:09:30.233Z,4.40
2022-10-09T13:12:23.508Z,2.50
2022-10-09T13:15:25.963Z,2.42
2022-10-09T13:18:22.521Z,2.05
2022-10-09T13:21:28.971Z,1.70
2022-10-09T13:24:15.288Z,1.35
2022-10-09T13:27:05.038Z,1.57
2022-10-09T13:29:52.721Z,1.50
2022-10-09T13:32:40.347Z,1.22
2022-10-09T13:35:27.615Z,1.70
2022-10-09T13:38:17.132Z,1.35
2022-10-09T13:41:04.685Z,1.30
2022-10-09T13:43:53.823Z,2.40
2022-10-09T13:46:41.057Z,1.00
2022-10-09T13:49:28.531Z,1.12
2022-10-09T13:52:15.890Z,0.80
2022-10-09T13:55:03.401Z,1.10
2022-10-09T13:57:51.121Z,1.05
2022-10-09T14:00:39.132Z,0.82
2022-10-09T14:03:26.518Z,1.10
2022-10-09T14:06:14.011Z,0.98
2022-10-09T14:09:01.354Z,1.52
2022-10-09T14:11:49.000Z,1.40
2022-10-09T14:14:36.393Z,0.95
2022-10-09T14:17:23.753Z,1.60
2022-10-09T14:20:11.565Z,1.62
2022-10-09T14:22:59.219Z,5.10
2022-10-09T14:25:46.664Z,2.00
2022-10-09T14:28:34.716Z,1.27
2022-10-09T14:31:22.218Z,0.95
2022-10-09T14:34:13.654Z,1.00
2022-10-09T14:37:01.258Z,1.12
2022-10-09T14:39:48.454Z,1.30
2022-10-09T14:42:37.231Z,1.47
2022-10-09T14:45:24.361Z,0.93
2022-10-09T14:48:12.372Z,1.20
2022-10-09T14:51:05.179Z,0.90
2022-10-09T14:53:52.495Z,1.50
2022-10-09T14:56:40.022Z,1.12
2022-10-09T14:59:29.604Z,1.80
2022-10-09T15:02:17.996Z,1.57
2022-10-09T15:05:06.270Z,0.98
2022-10-09T15:07:53.660Z,1.27
2022-10-09T15:10:43.173Z,1.50
2022-10-09T15:13:32.637Z,1.70
2022-10-09T15:16:21.718Z,1.20
2022-10-09T15:19:09.180Z,1.77
2022-10-09T15:21:56.398Z,1.17
2022-10-09T15:24:43.965Z,1.15
2022-10-09T15:27:31.849Z,1.30
2022-10-09T15:30:19.535Z,1.42
2022-10-09T15:33:06.975Z,1.10
2022-10-09T15:35:57.517Z,0.90
2022-10-09T15:38:46.895Z,0.85
2022-10-09T15:41:37.036Z,1.30
2022-10-09T15:44:24.672Z,1.02
2022-10-09T15:47:16.628Z,1.30
2022-10-09T15:50:01.530Z,1.30
2022-10-09T15:52:49.622Z,0.93
2022-10-09T15:55:39.763Z,1.00
2022-10-09T15:58:27.273Z,0.88
2022-10-09T16:01:16.261Z,1.20
2022-10-09T16:04:03.353Z,1.10
2022-10-09T16:06:50.812Z,0.93
2022-10-09T16:09:38.586Z,0.80
2022-10-09T16:12:27.049Z,1.02
2022-10-09T16:15:14.709Z,1.00
2022-10-09T16:18:02.108Z,1.10
2022-10-09T16:20:49.488Z,1.05
2022-10-09T16:23:37.522Z,1.07
2022-10-09T16:26:29.872Z,1.30
2022-10-09T16:29:17.035Z,1.30
2022-10-09T16:32:04.329Z,1.50
2022-10-09T16:34:51.842Z,1.27
2022-10-09T16:37:39.569Z,1.40
2022-10-09T16:40:49.859Z,1.20
2022-10-09T16:43:16.512Z,1.52
2022-10-09T16:46:24.558Z,1.10
2022-10-09T16:49:14.915Z,1.20
2022-10-09T16:52:02.159Z,1.25
2022-10-09T16:54:50.124Z,1.20
2022-10-09T16:57:37.460Z,1.62
2022-10-09T17:00:24.879Z,1.50
2022-10-09T17:03:12.082Z,1.62
2022-10-09T17:05:59.503Z,1.30
2022-10-09T17:08:48.064Z,1.50
2022-10-09T17:11:35.343Z,1.52
2022-10-09T17:14:22.620Z,1.37
2022-10-09T17:17:12.101Z,1.32
2022-10-09T17:19:59.289Z,1.70
2022-10-09T17:22:47.366Z,1.47
2022-10-09T17:25:36.390Z,1.27
2022-10-09T17:28:24.603Z,1.50
2022-10-09T17:31:17.230Z,1.20
2022-10-09T17:34:05.976Z,1.60
2022-10-09T17:36:53.520Z,1.67
2022-10-09T17:39:43.680Z,1.67
2022-10-09T17:42:30.055Z,2.00
2022-10-09T17:45:17.511Z,2.10
2022-10-09T17:48:04.792Z,1.72
2022-10-09T17:50:54.638Z,1.85
2022-10-09T17:53:42.051Z,2.10
2022-10-09T17:56:31.356Z,1.80
2022-10-09T17:59:18.789Z,2.02
2022-10-09T18:02:06.268Z,1.98
2022-10-09T18:04:55.317Z,2.20
2022-10-09T18:07:42.963Z,1.87
2022-10-09T18:10:30.073Z,2.20
2022-10-09T18:13:17.492Z,2.37
2022-10-09T18:16:09.904Z,2.02
2022-10-09T18:18:58.786Z,2.10
2022-10-09T18:21:48.903Z,2.50
2022-10-09T18:24:55.466Z,2.15
2022-10-09T18:27:42.730Z,2.25
2022-10-09T18:30:30.168Z,2.17
2022-10-09T18:33:17.507Z,2.25
2022-10-09T18:36:11.780Z,2.10
2022-10-09T18:39:05.058Z,2.33
2022-10-09T18:41:53.866Z,2.47
2022-10-09T18:44:42.751Z,2.35
2022-10-09T18:47:34.446Z,2.37
2022-10-09T18:50:22.419Z,1.90
2022-10-09T18:53:10.760Z,2.35
2022-10-09T18:56:00.309Z,2.00
2022-10-09T18:58:49.972Z,2.30
2022-10-09T19:01:37.164Z,2.58
2022-10-09T19:04:24.247Z,2.75
2022-10-09T19:07:11.680Z,2.10
2022-10-09T19:09:59.023Z,2.37
2022-10-09T19:12:46.367Z,2.47
2022-10-09T19:15:33.842Z,2.85
2022-10-09T19:18:21.996Z,2.30
2022-10-09T19:21:12.261Z,2.42
2022-10-09T19:24:01.549Z,2.30
2022-10-09T19:26:48.476Z,2.50
2022-10-09T19:29:37.399Z,2.72
2022-10-09T19:32:24.603Z,2.52
2022-10-09T19:35:12.346Z,2.67
2022-10-09T19:37:59.719Z,2.70
2022-10-09T19:40:47.543Z,3.15
2022-10-09T19:43:35.386Z,3.40
2022-10-09T19:46:23.199Z,3.45
2022-10-09T19:49:11.117Z,3.52
2022-10-09T19:51:58.645Z,3.30
2022-10-09T19:54:45.987Z,3.52
2022-10-09T19:57:35.218Z,2.85
2022-10-09T20:00:22.455Z,3.12
2022-10-09T20:03:09.731Z,3.08
2022-10-09T20:05:57.008Z,3.20
2022-10-09T20:08:45.129Z,2.80
2022-10-09T20:11:34.244Z,3.42
2022-10-09T20:14:21.731Z,3.00
2022-10-09T20:17:09.004Z,3.10
2022-10-09T20:19:56.244Z,2.37
2022-10-09T20:22:43.801Z,3.05
2022-10-09T20:25:31.337Z,2.65
2022-10-09T20:28:18.726Z,3.33
2022-10-09T20:31:08.310Z,3.12
2022-10-09T20:33:56.121Z,3.17
2022-10-09T20:36:43.799Z,2.80
2022-10-09T20:39:31.412Z,3.10
2022-10-09T20:42:18.871Z,2.67
2022-10-09T20:45:07.165Z,3.10
2022-10-09T20:47:54.902Z,3.00
2022-10-09T20:50:43.276Z,3.10
2022-10-09T20:53:30.696Z,3.30
2022-10-09T20:56:18.388Z,2.70
2022-10-09T20:59:06.045Z,2.80
2022-10-09T21:01:53.417Z,3.00
2022-10-09T21:04:40.796Z,2.72
2022-10-09T21:07:28.049Z,3.10
2022-10-09T21:10:16.049Z,2.80
2022-10-09T21:13:03.173Z,2.70
2022-10-09T21:15:51.629Z,2.98
2022-10-09T21:18:39.984Z,3.02
2022-10-09T21:21:31.048Z,2.85
2022-10-09T21:24:18.544Z,3.05
2022-10-09T21:27:05.994Z,2.90
2022-10-09T21:29:53.327Z,3.08
2022-10-09T21:32:40.267Z,2.60
2022-10-09T21:35:27.792Z,2.80
2022-10-09T21:38:18.476Z,3.20
2022-10-09T21:41:06.177Z,2.83
2022-10-09T21:43:53.749Z,2.90
2022-10-09T21:46:41.810Z,3.55
2022-10-09T21:49:29.865Z,3.00
2022-10-09T21:52:17.176Z,2.37
2022-10-09T21:55:04.857Z,2.72
2022-10-09T21:57:52.425Z,2.70
2022-10-09T22:00:39.929Z,2.52
2022-10-09T22:03:29.388Z,2.60
2022-10-09T22:06:19.175Z,2.60
2022-10-09T22:09:06.262Z,2.98
2022-10-09T22:11:53.783Z,2.67
2022-10-09T22:14:41.011Z,2.72
2022-10-09T22:17:28.577Z,2.60
2022-10-09T22:20:16.101Z,2.62
2022-10-09T22:23:03.292Z,2.70
2022-10-09T22:25:58.369Z,2.83
2022-10-09T22:28:46.796Z,2.70
2022-10-09T22:31:33.916Z,2.77
2022-10-09T22:34:22.849Z,2.37
2022-10-09T22:37:09.924Z,2.45
2022-10-09T22:39:57.422Z,2.58
2022-10-09T22:42:44.748Z,2.40
2022-10-09T22:45:32.046Z,2.55
2022-10-09T22:48:19.330Z,2.72
2022-10-09T22:51:09.127Z,2.52
2022-10-09T22:53:58.263Z,2.42
2022-10-09T22:56:46.736Z,2.40
2022-10-09T22:59:33.987Z,2.20
2022-10-09T23:02:21.232Z,2.65
2022-10-09T23:05:08.614Z,2.33
2022-10-09T23:07:56.264Z,2.80
2022-10-09T23:10:43.743Z,2.40
2022-10-09T23:13:30.927Z,2.75
2022-10-09T23:16:18.435Z,2.22
2022-10-09T23:19:07.206Z,2.52
2022-10-09T23:21:54.788Z,2.95
2022-10-09T23:24:42.010Z,2.83
2022-10-09T23:27:29.694Z,2.40
2022-10-09T23:30:16.916Z,2.67
2022-10-09T23:33:04.452Z,2.50
2022-10-09T23:35:51.719Z,2.50
2022-10-09T23:38:38.965Z,2.70
2022-10-09T23:41:27.781Z,2.37
2022-10-09T23:44:17.798Z,2.60
2022-10-09T23:47:04.088Z,2.90
2022-10-09T23:49:51.277Z,2.70
2022-10-09T23:52:38.655Z,2.52
2022-10-09T23:55:25.989Z,2.90
2022-10-09T23:58:18.403Z,2.52
